sensor_id;sensor_type;location;lat;lon;timestamp;pressure;altitude;pressure_sealevel;temperature;humidity
41044;BME280;51680;49.806;18.774;2023-04-07T00:01:50;97360.63;;;4.91;75.56
41044;BME280;51680;49.806;18.774;2023-04-07T00:04:51;97361.66;;;4.87;75.45
41044;BME280;51680;49.806;18.774;2023-04-07T00:07:55;97355.56;;;4.88;75.90
41044;BME280;51680;49.806;18.774;2023-04-07T00:10:57;97365.22;;;4.85;75.56
41044;BME280;51680;49.806;18.774;2023-04-07T00:13:58;97361.00;;;4.82;75.56
41044;BME280;51680;49.806;18.774;2023-04-07T00:17:00;97351.38;;;4.86;75.82
41044;BME280;51680;49.806;18.774;2023-04-07T00:20:02;97347.16;;;4.83;75.80
41044;BME280;51680;49.806;18.774;2023-04-07T00:23:06;97354.03;;;4.84;75.78
41044;BME280;51680;49.806;18.774;2023-04-07T00:26:08;97348.13;;;4.81;75.87
41044;BME280;51680;49.806;18.774;2023-04-07T00:29:10;97339.56;;;4.80;75.80
41044;BME280;51680;49.806;18.774;2023-04-07T00:32:12;97332.63;;;4.81;75.56
41044;BME280;51680;49.806;18.774;2023-04-07T00:35:14;97336.97;;;4.80;76.45
41044;BME280;51680;49.806;18.774;2023-04-07T00:38:17;97334.34;;;4.82;75.59
41044;BME280;51680;49.806;18.774;2023-04-07T00:41:18;97330.13;;;4.79;75.82
41044;BME280;51680;49.806;18.774;2023-04-07T00:44:20;97325.59;;;4.84;76.09
41044;BME280;51680;49.806;18.774;2023-04-07T00:47:22;97324.69;;;4.85;76.04
41044;BME280;51680;49.806;18.774;2023-04-07T00:50:24;97325.44;;;4.87;75.65
41044;BME280;51680;49.806;18.774;2023-04-07T00:53:28;97318.50;;;4.89;75.63
41044;BME280;51680;49.806;18.774;2023-04-07T00:56:30;97321.06;;;4.89;76.26
41044;BME280;51680;49.806;18.774;2023-04-07T00:59:32;97326.09;;;4.92;75.82
41044;BME280;51680;49.806;18.774;2023-04-07T01:02:37;97319.25;;;4.91;75.90
41044;BME280;51680;49.806;18.774;2023-04-07T01:05:54;97307.22;;;4.90;75.79
41044;BME280;51680;49.806;18.774;2023-04-07T01:09:01;97296.19;;;4.87;75.64
41044;BME280;51680;49.806;18.774;2023-04-07T01:12:11;97309.03;;;4.88;75.85
41044;BME280;51680;49.806;18.774;2023-04-07T01:15:17;97308.25;;;4.86;76.01
41044;BME280;51680;49.806;18.774;2023-04-07T01:18:30;97295.34;;;4.86;76.31
41044;BME280;51680;49.806;18.774;2023-04-07T01:21:33;97296.31;;;4.84;76.55
41044;BME280;51680;49.806;18.774;2023-04-07T01:24:49;97303.16;;;4.85;76.10
41044;BME280;51680;49.806;18.774;2023-04-07T01:28:13;97300.63;;;4.83;76.79
41044;BME280;51680;49.806;18.774;2023-04-07T01:31:21;97294.91;;;4.77;76.32
41044;BME280;51680;49.806;18.774;2023-04-07T01:34:24;97293.78;;;4.82;76.45
41044;BME280;51680;49.806;18.774;2023-04-07T01:37:27;97298.78;;;4.87;76.24
41044;BME280;51680;49.806;18.774;2023-04-07T01:40:32;97302.06;;;4.90;76.54
41044;BME280;51680;49.806;18.774;2023-04-07T01:43:34;97305.78;;;4.83;78.44
41044;BME280;51680;49.806;18.774;2023-04-07T01:46:38;97283.16;;;4.88;76.37
41044;BME280;51680;49.806;18.774;2023-04-07T01:49:40;97278.00;;;4.88;76.00
41044;BME280;51680;49.806;18.774;2023-04-07T01:52:43;97271.03;;;4.90;76.28
41044;BME280;51680;49.806;18.774;2023-04-07T01:55:46;97283.16;;;4.88;76.05
41044;BME280;51680;49.806;18.774;2023-04-07T01:58:47;97283.91;;;4.92;75.92
41044;BME280;51680;49.806;18.774;2023-04-07T02:01:53;97280.47;;;4.91;76.25
41044;BME280;51680;49.806;18.774;2023-04-07T02:04:57;97272.69;;;4.91;76.13
41044;BME280;51680;49.806;18.774;2023-04-07T02:08:04;97272.69;;;4.91;76.37
41044;BME280;51680;49.806;18.774;2023-04-07T02:11:10;97277.88;;;4.91;75.92
41044;BME280;51680;49.806;18.774;2023-04-07T02:14:32;97281.38;;;4.90;76.21
41044;BME280;51680;49.806;18.774;2023-04-07T02:17:43;97278.84;;;4.89;75.70
41044;BME280;51680;49.806;18.774;2023-04-07T02:20:46;97280.53;;;4.90;75.80
41044;BME280;51680;49.806;18.774;2023-04-07T02:23:49;97275.50;;;4.87;76.34
41044;BME280;51680;49.806;18.774;2023-04-07T02:26:52;97280.59;;;4.88;76.70
41044;BME280;51680;49.806;18.774;2023-04-07T02:29:53;97282.28;;;4.89;76.35
41044;BME280;51680;49.806;18.774;2023-04-07T02:32:58;97282.28;;;4.89;75.95
41044;BME280;51680;49.806;18.774;2023-04-07T02:36:00;97270.38;;;4.85;76.51
41044;BME280;51680;49.806;18.774;2023-04-07T02:39:02;97278.00;;;4.88;76.19
41044;BME280;51680;49.806;18.774;2023-04-07T02:42:04;97266.78;;;4.89;76.48
41044;BME280;51680;49.806;18.774;2023-04-07T02:45:07;97263.28;;;4.90;76.55
41044;BME280;51680;49.806;18.774;2023-04-07T02:48:12;97265.78;;;4.92;75.79
41044;BME280;51680;49.806;18.774;2023-04-07T02:51:14;97269.09;;;4.95;76.13
41044;BME280;51680;49.806;18.774;2023-04-07T02:54:15;97264.88;;;4.93;76.24
41044;BME280;51680;49.806;18.774;2023-04-07T02:57:36;97265.72;;;4.93;76.22
41044;BME280;51680;49.806;18.774;2023-04-07T03:00:42;97265.00;;;4.90;76.39
41044;BME280;51680;49.806;18.774;2023-04-07T03:03:52;97262.47;;;4.88;76.16
41044;BME280;51680;49.806;18.774;2023-04-07T03:06:57;97266.91;;;4.86;76.29
41044;BME280;51680;49.806;18.774;2023-04-07T03:10:02;97262.63;;;4.85;76.50
41044;BME280;51680;49.806;18.774;2023-04-07T03:13:05;97262.63;;;4.85;76.60
41044;BME280;51680;49.806;18.774;2023-04-07T03:16:09;97259.13;;;4.86;76.40
41044;BME280;51680;49.806;18.774;2023-04-07T03:19:23;97265.97;;;4.87;76.64
41044;BME280;51680;49.806;18.774;2023-04-07T03:22:26;97267.16;;;4.80;78.35
41044;BME280;51680;49.806;18.774;2023-04-07T03:25:29;97260.13;;;4.84;76.83
41044;BME280;51680;49.806;18.774;2023-04-07T03:28:32;97266.84;;;4.88;76.53
41044;BME280;51680;49.806;18.774;2023-04-07T03:31:34;97265.78;;;4.92;76.33
41044;BME280;51680;49.806;18.774;2023-04-07T03:34:38;97258.09;;;4.90;76.59
41044;BME280;51680;49.806;18.774;2023-04-07T03:37:40;97255.56;;;4.89;76.76
41044;BME280;51680;49.806;18.774;2023-04-07T03:40:47;97246.84;;;4.91;76.51
41044;BME280;51680;49.806;18.774;2023-04-07T03:43:49;97254.66;;;4.90;76.40
41044;BME280;51680;49.806;18.774;2023-04-07T03:46:51;97262.28;;;4.93;76.43
41044;BME280;51680;49.806;18.774;2023-04-07T03:49:56;97270.75;;;4.96;76.65
41044;BME280;51680;49.806;18.774;2023-04-07T03:52:58;97269.84;;;4.97;76.59
41044;BME280;51680;49.806;18.774;2023-04-07T03:56:03;97263.78;;;4.98;76.21
41044;BME280;51680;49.806;18.774;2023-04-07T03:59:21;97267.19;;;4.99;76.36
41044;BME280;51680;49.806;18.774;2023-04-07T04:02:32;97274.13;;;4.98;76.45
41044;BME280;51680;49.806;18.774;2023-04-07T04:05:35;97272.31;;;5.00;76.39
41044;BME280;51680;49.806;18.774;2023-04-07T04:08:37;97266.22;;;5.01;76.09
41044;BME280;51680;49.806;18.774;2023-04-07T04:11:40;97268.81;;;5.01;76.44
41044;BME280;51680;49.806;18.774;2023-04-07T04:14:42;97273.16;;;5.01;76.38
41044;BME280;51680;49.806;18.774;2023-04-07T04:17:45;97265.31;;;5.02;76.15
41044;BME280;51680;49.806;18.774;2023-04-07T04:20:50;97275.53;;;5.05;76.05
41044;BME280;51680;49.806;18.774;2023-04-07T04:23:53;97272.25;;;5.02;76.41
41044;BME280;51680;49.806;18.774;2023-04-07T04:26:55;97279.84;;;5.05;76.69
41044;BME280;51680;49.806;18.774;2023-04-07T04:29:57;97276.38;;;5.06;76.12
41044;BME280;51680;49.806;18.774;2023-04-07T04:33:08;97281.56;;;5.06;76.11
41044;BME280;51680;49.806;18.774;2023-04-07T04:36:18;97281.41;;;5.09;76.70
41044;BME280;51680;49.806;18.774;2023-04-07T04:39:20;97278.75;;;5.10;76.35
41044;BME280;51680;49.806;18.774;2023-04-07T04:42:23;97281.97;;;5.15;75.90
41044;BME280;51680;49.806;18.774;2023-04-07T04:45:28;97274.50;;;5.09;76.18
41044;BME280;51680;49.806;18.774;2023-04-07T04:48:30;97275.25;;;5.11;76.11
41044;BME280;51680;49.806;18.774;2023-04-07T04:51:33;97278.47;;;5.16;76.31
41044;BME280;51680;49.806;18.774;2023-04-07T04:54:44;97281.84;;;5.18;76.21
41044;BME280;51680;49.806;18.774;2023-04-07T04:57:46;97274.03;;;5.20;76.14
41044;BME280;51680;49.806;18.774;2023-04-07T05:00:54;97275.75;;;5.19;76.23
41044;BME280;51680;49.806;18.774;2023-04-07T05:04:02;97281.63;;;5.23;76.09
41044;BME280;51680;49.806;18.774;2023-04-07T05:07:05;97274.72;;;5.23;76.00
41044;BME280;51680;49.806;18.774;2023-04-07T05:10:07;97273.75;;;5.26;76.42
41044;BME280;51680;49.806;18.774;2023-04-07T05:13:14;97270.31;;;5.25;76.18
41044;BME280;51680;49.806;18.774;2023-04-07T05:16:16;97271.97;;;5.26;76.47
41044;BME280;51680;49.806;18.774;2023-04-07T05:19:18;97268.41;;;5.29;76.20
41044;BME280;51680;49.806;18.774;2023-04-07T05:22:21;97279.47;;;5.32;76.07
41044;BME280;51680;49.806;18.774;2023-04-07T05:25:25;97270.81;;;5.33;75.74
41044;BME280;51680;49.806;18.774;2023-04-07T05:28:31;97274.16;;;5.35;76.11
41044;BME280;51680;49.806;18.774;2023-04-07T05:31:52;97276.66;;;5.37;75.54
41044;BME280;51680;49.806;18.774;2023-04-07T05:34:56;97276.47;;;5.41;76.09
41044;BME280;51680;49.806;18.774;2023-04-07T05:38:03;97273.72;;;5.44;75.38
41044;BME280;51680;49.806;18.774;2023-04-07T05:41:05;97279.53;;;5.49;75.75
41044;BME280;51680;49.806;18.774;2023-04-07T05:44:10;97275.16;;;5.51;75.90
41044;BME280;51680;49.806;18.774;2023-04-07T05:47:15;97281.16;;;5.52;75.91
41044;BME280;51680;49.806;18.774;2023-04-07T05:50:18;97288.72;;;5.56;75.78
41044;BME280;51680;49.806;18.774;2023-04-07T05:53:22;97288.84;;;5.53;75.37
41044;BME280;51680;49.806;18.774;2023-04-07T05:56:25;97272.47;;;5.53;75.67
41044;BME280;51680;49.806;18.774;2023-04-07T05:59:28;97269.69;;;5.57;75.84
41044;BME280;51680;49.806;18.774;2023-04-07T06:02:30;97274.56;;;5.63;75.32
41044;BME280;51680;49.806;18.774;2023-04-07T06:05:33;97277.50;;;5.74;75.05
41044;BME280;51680;49.806;18.774;2023-04-07T06:08:37;97282.38;;;5.82;74.55
41044;BME280;51680;49.806;18.774;2023-04-07T06:11:39;97284.09;;;5.81;76.25
41044;BME280;51680;49.806;18.774;2023-04-07T06:14:41;97288.84;;;5.90;74.57
41044;BME280;51680;49.806;18.774;2023-04-07T06:17:43;97277.91;;;6.02;74.60
41044;BME280;51680;49.806;18.774;2023-04-07T06:20:45;97279.22;;;6.11;74.51
41044;BME280;51680;49.806;18.774;2023-04-07T06:23:49;97278.69;;;6.21;73.67
41044;BME280;51680;49.806;18.774;2023-04-07T06:26:51;97269.19;;;6.22;73.79
41044;BME280;51680;49.806;18.774;2023-04-07T06:29:55;97267.25;;;6.25;73.67
41044;BME280;51680;49.806;18.774;2023-04-07T06:32:57;97259.34;;;6.28;73.74
41044;BME280;51680;49.806;18.774;2023-04-07T06:35:58;97257.38;;;6.33;74.13
41044;BME280;51680;49.806;18.774;2023-04-07T06:39:02;97262.25;;;6.39;73.30
41044;BME280;51680;49.806;18.774;2023-04-07T06:42:04;97273.00;;;6.32;74.09
41044;BME280;51680;49.806;18.774;2023-04-07T06:45:11;97271.00;;;6.37;74.02
41044;BME280;51680;49.806;18.774;2023-04-07T06:48:13;97274.00;;;6.46;73.69
41044;BME280;51680;49.806;18.774;2023-04-07T06:51:15;97281.41;;;6.54;73.18
41044;BME280;51680;49.806;18.774;2023-04-07T06:54:18;97281.22;;;6.57;73.18
41044;BME280;51680;49.806;18.774;2023-04-07T06:57:19;97289.19;;;6.54;72.88
41044;BME280;51680;49.806;18.774;2023-04-07T07:00:21;97292.28;;;6.60;72.73
41044;BME280;51680;49.806;18.774;2023-04-07T07:03:23;97292.22;;;6.62;73.05
41044;BME280;51680;49.806;18.774;2023-04-07T07:06:26;97285.09;;;6.65;73.35
41044;BME280;51680;49.806;18.774;2023-04-07T07:09:30;97289.53;;;6.63;72.71
41044;BME280;51680;49.806;18.774;2023-04-07T07:12:31;97301.66;;;6.63;72.67
41044;BME280;51680;49.806;18.774;2023-04-07T07:15:33;97302.66;;;6.60;72.86
41044;BME280;51680;49.806;18.774;2023-04-07T07:18:35;97301.06;;;6.58;73.14
41044;BME280;51680;49.806;18.774;2023-04-07T07:21:37;97303.50;;;6.61;72.79
41044;BME280;51680;49.806;18.774;2023-04-07T07:24:40;97294.66;;;6.65;73.02
41044;BME280;51680;49.806;18.774;2023-04-07T07:27:42;97293.66;;;6.67;73.04
41044;BME280;51680;49.806;18.774;2023-04-07T07:30:44;97291.75;;;6.71;72.32
41044;BME280;51680;49.806;18.774;2023-04-07T07:33:46;97296.56;;;6.78;72.55
41044;BME280;51680;49.806;18.774;2023-04-07T07:36:49;97287.69;;;6.82;72.64
41044;BME280;51680;49.806;18.774;2023-04-07T07:39:52;97292.56;;;6.88;72.86
41044;BME280;51680;49.806;18.774;2023-04-07T07:42:54;97291.50;;;6.92;72.08
41044;BME280;51680;49.806;18.774;2023-04-07T07:45:56;97299.81;;;6.99;72.32
41044;BME280;51680;49.806;18.774;2023-04-07T07:48:57;97302.75;;;7.08;72.38
41044;BME280;51680;49.806;18.774;2023-04-07T07:51:59;97305.81;;;7.16;72.04
41044;BME280;51680;49.806;18.774;2023-04-07T07:55:04;97306.59;;;7.18;72.04
41044;BME280;51680;49.806;18.774;2023-04-07T07:58:05;97306.53;;;7.03;72.00
41044;BME280;51680;49.806;18.774;2023-04-07T08:01:07;97296.16;;;7.03;71.67
41044;BME280;51680;49.806;18.774;2023-04-07T08:04:09;97292.56;;;7.05;71.53
41044;BME280;51680;49.806;18.774;2023-04-07T08:07:11;97293.63;;;7.01;71.76
41044;BME280;51680;49.806;18.774;2023-04-07T08:10:14;97298.69;;;7.04;71.88
41044;BME280;51680;49.806;18.774;2023-04-07T08:13:16;97302.94;;;7.05;71.79
41044;BME280;51680;49.806;18.774;2023-04-07T08:16:17;97294.69;;;7.14;71.63
41044;BME280;51680;49.806;18.774;2023-04-07T08:19:19;97293.44;;;7.21;71.68
41044;BME280;51680;49.806;18.774;2023-04-07T08:22:21;97293.22;;;7.26;71.37
41044;BME280;51680;49.806;18.774;2023-04-07T08:25:24;97292.22;;;7.28;70.45
41044;BME280;51680;49.806;18.774;2023-04-07T08:28:26;97293.69;;;7.32;70.91
41044;BME280;51680;49.806;18.774;2023-04-07T08:31:28;97282.25;;;7.36;70.63
41044;BME280;51680;49.806;18.774;2023-04-07T08:34:29;97286.34;;;7.40;70.95
41044;BME280;51680;49.806;18.774;2023-04-07T08:37:33;97294.06;;;7.42;70.77
41044;BME280;51680;49.806;18.774;2023-04-07T08:40:36;97290.63;;;7.41;70.55
41044;BME280;51680;49.806;18.774;2023-04-07T08:43:38;97299.59;;;7.36;70.68
41044;BME280;51680;49.806;18.774;2023-04-07T08:46:41;97293.22;;;7.41;71.10
41044;BME280;51680;49.806;18.774;2023-04-07T08:49:44;97301.78;;;7.43;71.08
41044;BME280;51680;49.806;18.774;2023-04-07T08:52:49;97295.19;;;7.53;70.68
41044;BME280;51680;49.806;18.774;2023-04-07T08:55:55;97300.47;;;7.67;70.51
41044;BME280;51680;49.806;18.774;2023-04-07T08:58:59;97296.44;;;7.77;70.42
41044;BME280;51680;49.806;18.774;2023-04-07T09:02:01;97287.50;;;7.83;70.24
41044;BME280;51680;49.806;18.774;2023-04-07T09:05:06;97280.94;;;7.91;70.37
41044;BME280;51680;49.806;18.774;2023-04-07T09:08:09;97282.97;;;8.02;70.02
41044;BME280;51680;49.806;18.774;2023-04-07T09:11:12;97281.94;;;8.04;69.81
41044;BME280;51680;49.806;18.774;2023-04-07T09:14:14;97289.13;;;7.99;69.82
41044;BME280;51680;49.806;18.774;2023-04-07T09:17:18;97286.53;;;7.99;69.84
41044;BME280;51680;49.806;18.774;2023-04-07T09:20:20;97287.53;;;7.97;69.41
41044;BME280;51680;49.806;18.774;2023-04-07T09:23:26;97289.56;;;7.92;69.17
41044;BME280;51680;49.806;18.774;2023-04-07T09:26:31;97285.72;;;7.83;69.58
41044;BME280;51680;49.806;18.774;2023-04-07T09:29:33;97276.91;;;7.70;69.78
41044;BME280;51680;49.806;18.774;2023-04-07T09:32:35;97275.91;;;7.57;70.26
41044;BME280;51680;49.806;18.774;2023-04-07T09:35:50;97278.22;;;7.46;69.90
41044;BME280;51680;49.806;18.774;2023-04-07T09:38:52;97300.88;;;7.27;71.18
41044;BME280;51680;49.806;18.774;2023-04-07T09:41:56;97298.06;;;7.32;70.54
41044;BME280;51680;49.806;18.774;2023-04-07T09:44:57;97292.50;;;7.22;71.21
41044;BME280;51680;49.806;18.774;2023-04-07T09:48:04;97283.72;;;7.25;70.96
41044;BME280;51680;49.806;18.774;2023-04-07T09:51:08;97285.31;;;7.27;71.18
41044;BME280;51680;49.806;18.774;2023-04-07T09:54:09;97280.44;;;7.21;72.09
41044;BME280;51680;49.806;18.774;2023-04-07T09:57:13;97273.94;;;7.30;71.45
41044;BME280;51680;49.806;18.774;2023-04-07T10:00:17;97280.31;;;7.24;71.77
41044;BME280;51680;49.806;18.774;2023-04-07T10:03:19;97287.31;;;7.22;71.51
41044;BME280;51680;49.806;18.774;2023-04-07T10:06:21;97277.13;;;7.19;72.01
41044;BME280;51680;49.806;18.774;2023-04-07T10:09:26;97275.13;;;7.24;72.02
41044;BME280;51680;49.806;18.774;2023-04-07T10:12:32;97279.81;;;7.33;72.11
41044;BME280;51680;49.806;18.774;2023-04-07T10:15:35;97275.97;;;7.40;71.35
41044;BME280;51680;49.806;18.774;2023-04-07T10:18:38;97282.16;;;7.38;71.78
41044;BME280;51680;49.806;18.774;2023-04-07T10:21:41;97282.41;;;7.33;71.73
41044;BME280;51680;49.806;18.774;2023-04-07T10:24:50;97271.25;;;7.31;72.04
41044;BME280;51680;49.806;18.774;2023-04-07T10:27:59;97276.78;;;7.25;71.96
41044;BME280;51680;49.806;18.774;2023-04-07T10:31:04;97281.97;;;7.25;71.80
41044;BME280;51680;49.806;18.774;2023-04-07T10:34:06;97285.31;;;7.27;71.75
41044;BME280;51680;49.806;18.774;2023-04-07T10:37:09;97276.63;;;7.28;72.09
41044;BME280;51680;49.806;18.774;2023-04-07T10:40:28;97280.63;;;7.18;72.47
41044;BME280;51680;49.806;18.774;2023-04-07T10:43:39;97276.34;;;7.17;72.61
41044;BME280;51680;49.806;18.774;2023-04-07T10:47:03;97282.78;;;7.10;72.59
41044;BME280;51680;49.806;18.774;2023-04-07T10:50:16;97284.59;;;7.08;72.61
41044;BME280;51680;49.806;18.774;2023-04-07T10:53:18;97286.59;;;7.03;72.50
41044;BME280;51680;49.806;18.774;2023-04-07T10:56:21;97298.16;;;6.98;73.17
41044;BME280;51680;49.806;18.774;2023-04-07T10:59:24;97293.63;;;7.01;73.04
41044;BME280;51680;49.806;18.774;2023-04-07T11:02:37;97293.00;;;7.13;73.14
41044;BME280;51680;49.806;18.774;2023-04-07T11:05:39;97294.69;;;7.14;73.39
41044;BME280;51680;49.806;18.774;2023-04-07T11:08:44;97300.63;;;7.16;72.62
41044;BME280;51680;49.806;18.774;2023-04-07T11:11:45;97296.03;;;7.21;72.72
41044;BME280;51680;49.806;18.774;2023-04-07T11:15:18;97298.63;;;7.21;72.62
41044;BME280;51680;49.806;18.774;2023-04-07T11:18:21;97301.22;;;7.21;72.38
41044;BME280;51680;49.806;18.774;2023-04-07T11:21:23;97295.09;;;7.22;72.21
41044;BME280;51680;49.806;18.774;2023-04-07T11:24:32;97301.06;;;7.24;72.82
41044;BME280;51680;49.806;18.774;2023-04-07T11:27:33;97295.03;;;7.24;72.14
41044;BME280;51680;49.806;18.774;2023-04-07T11:30:37;97294.22;;;7.23;72.65
41044;BME280;51680;49.806;18.774;2023-04-07T11:33:39;97283.91;;;7.22;72.54
41044;BME280;51680;49.806;18.774;2023-04-07T11:36:41;97284.56;;;7.25;72.65
41044;BME280;51680;49.806;18.774;2023-04-07T11:39:43;97280.13;;;7.27;73.08
41044;BME280;51680;49.806;18.774;2023-04-07T11:42:47;97274.63;;;7.33;73.25
41044;BME280;51680;49.806;18.774;2023-04-07T11:46:07;97278.75;;;7.37;72.72
41044;BME280;51680;49.806;18.774;2023-04-07T11:49:10;97281.34;;;7.37;73.14
41044;BME280;51680;49.806;18.774;2023-04-07T11:52:12;97281.50;;;7.34;73.09
41044;BME280;51680;49.806;18.774;2023-04-07T11:55:17;97286.34;;;7.40;73.25
41044;BME280;51680;49.806;18.774;2023-04-07T11:58:46;97276.75;;;7.42;73.39
41044;BME280;51680;49.806;18.774;2023-04-07T12:01:51;97275.28;;;7.37;73.72
41044;BME280;51680;49.806;18.774;2023-04-07T12:04:55;97269.25;;;7.36;73.62
41044;BME280;51680;49.806;18.774;2023-04-07T12:07:57;97272.69;;;7.37;73.45
41044;BME280;51680;49.806;18.774;2023-04-07T12:11:02;97275.53;;;7.32;73.52
41044;BME280;51680;49.806;18.774;2023-04-07T12:14:04;97268.66;;;7.31;73.77
41044;BME280;51680;49.806;18.774;2023-04-07T12:17:19;97270.25;;;7.34;74.33
41044;BME280;51680;49.806;18.774;2023-04-07T12:20:21;97266.84;;;7.33;73.87
41044;BME280;51680;49.806;18.774;2023-04-07T12:23:22;97267.06;;;7.29;74.13
41044;BME280;51680;49.806;18.774;2023-04-07T12:26:24;97260.53;;;7.22;73.96
41044;BME280;51680;49.806;18.774;2023-04-07T12:29:26;97266.44;;;7.08;74.66
41044;BME280;51680;49.806;18.774;2023-04-07T12:32:30;97266.00;;;7.00;74.46
41044;BME280;51680;49.806;18.774;2023-04-07T12:35:33;97271.53;;;6.94;74.87
41044;BME280;51680;49.806;18.774;2023-04-07T12:38:35;97265.94;;;7.02;74.52
41044;BME280;51680;49.806;18.774;2023-04-07T12:41:36;97270.13;;;7.04;74.42
41044;BME280;51680;49.806;18.774;2023-04-07T12:44:39;97269.03;;;7.08;74.72
41044;BME280;51680;49.806;18.774;2023-04-07T12:47:43;97265.28;;;7.14;74.34
41044;BME280;51680;49.806;18.774;2023-04-07T12:50:45;97266.88;;;7.16;74.43
41044;BME280;51680;49.806;18.774;2023-04-07T12:53:47;97265.06;;;7.18;74.22
41044;BME280;51680;49.806;18.774;2023-04-07T12:56:48;97272.84;;;7.18;74.37
41044;BME280;51680;49.806;18.774;2023-04-07T12:59:51;97278.78;;;7.20;74.88
41044;BME280;51680;49.806;18.774;2023-04-07T13:02:55;97280.44;;;7.21;74.45
41044;BME280;51680;49.806;18.774;2023-04-07T13:05:57;97273.75;;;7.17;74.60
41044;BME280;51680;49.806;18.774;2023-04-07T13:09:00;97274.84;;;7.13;75.20
41044;BME280;51680;49.806;18.774;2023-04-07T13:12:02;97274.75;;;7.15;74.71
41044;BME280;51680;49.806;18.774;2023-04-07T13:15:05;97278.94;;;7.17;75.07
41044;BME280;51680;49.806;18.774;2023-04-07T13:18:08;97278.78;;;7.20;74.63
41044;BME280;51680;49.806;18.774;2023-04-07T13:21:10;97284.03;;;7.19;74.81
41044;BME280;51680;49.806;18.774;2023-04-07T13:24:12;97290.16;;;7.18;74.85
41044;BME280;51680;49.806;18.774;2023-04-07T13:27:14;97284.13;;;7.17;75.25
41044;BME280;51680;49.806;18.774;2023-04-07T13:30:16;97278.03;;;7.18;75.31
41044;BME280;51680;49.806;18.774;2023-04-07T13:33:20;97275.59;;;7.15;75.54
41044;BME280;51680;49.806;18.774;2023-04-07T13:36:22;97271.16;;;7.17;75.74
41044;BME280;51680;49.806;18.774;2023-04-07T13:39:24;97276.44;;;7.16;75.78
41044;BME280;51680;49.806;18.774;2023-04-07T13:42:26;97278.81;;;7.03;75.93
41044;BME280;51680;49.806;18.774;2023-04-07T13:45:27;97279.41;;;7.08;75.90
41044;BME280;51680;49.806;18.774;2023-04-07T13:48:31;97282.63;;;7.13;75.87
41044;BME280;51680;49.806;18.774;2023-04-07T13:51:33;97276.44;;;7.16;75.58
41044;BME280;51680;49.806;18.774;2023-04-07T13:54:35;97284.13;;;7.17;75.52
41044;BME280;51680;49.806;18.774;2023-04-07T13:57:38;97282.53;;;7.15;75.42
41044;BME280;51680;49.806;18.774;2023-04-07T14:00:39;97282.13;;;7.22;76.03
41044;BME280;51680;49.806;18.774;2023-04-07T14:03:43;97280.44;;;7.21;75.43
41044;BME280;51680;49.806;18.774;2023-04-07T14:06:45;97280.94;;;7.12;76.91
41044;BME280;51680;49.806;18.774;2023-04-07T14:09:48;97278.13;;;7.17;74.83
41044;BME280;51680;49.806;18.774;2023-04-07T14:12:50;97277.94;;;7.20;75.20
41044;BME280;51680;49.806;18.774;2023-04-07T14:16:21;97279.53;;;7.22;75.30
41044;BME280;51680;49.806;18.774;2023-04-07T14:19:24;97283.13;;;7.20;75.38
41044;BME280;51680;49.806;18.774;2023-04-07T14:22:26;97287.66;;;7.16;75.33
41044;BME280;51680;49.806;18.774;2023-04-07T14:25:48;97283.53;;;7.12;75.19
41044;BME280;51680;49.806;18.774;2023-04-07T14:28:50;97287.97;;;7.10;75.42
41044;BME280;51680;49.806;18.774;2023-04-07T14:31:52;97285.38;;;7.10;75.62
41044;BME280;51680;49.806;18.774;2023-04-07T14:34:55;97275.91;;;7.09;75.35
41044;BME280;51680;49.806;18.774;2023-04-07T14:37:58;97276.91;;;7.07;75.81
41044;BME280;51680;49.806;18.774;2023-04-07T14:41:00;97279.59;;;7.05;75.74
41044;BME280;51680;49.806;18.774;2023-04-07T14:44:02;97279.72;;;7.02;75.73
41044;BME280;51680;49.806;18.774;2023-04-07T14:47:04;97280.97;;;6.95;76.43
41044;BME280;51680;49.806;18.774;2023-04-07T14:50:08;97280.06;;;6.96;75.95
41044;BME280;51680;49.806;18.774;2023-04-07T14:53:10;97283.38;;;6.83;78.29
41044;BME280;51680;49.806;18.774;2023-04-07T14:56:12;97274.66;;;6.84;76.48
41044;BME280;51680;49.806;18.774;2023-04-07T14:59:14;97284.84;;;6.87;76.40
41044;BME280;51680;49.806;18.774;2023-04-07T15:02:16;97285.78;;;6.86;75.91
41044;BME280;51680;49.806;18.774;2023-04-07T15:05:19;97286.56;;;6.88;76.21
41044;BME280;51680;49.806;18.774;2023-04-07T15:08:22;97289.22;;;6.86;76.18
41044;BME280;51680;49.806;18.774;2023-04-07T15:11:24;97296.09;;;6.87;76.38
41044;BME280;51680;49.806;18.774;2023-04-07T15:14:27;97295.03;;;6.91;76.60
41044;BME280;51680;49.806;18.774;2023-04-07T15:17:29;97292.44;;;6.91;76.47
41044;BME280;51680;49.806;18.774;2023-04-07T15:20:32;97291.03;;;6.84;76.26
41044;BME280;51680;49.806;18.774;2023-04-07T15:23:34;97301.59;;;6.81;76.08
41044;BME280;51680;49.806;18.774;2023-04-07T15:26:37;97302.53;;;6.80;76.25
41044;BME280;51680;49.806;18.774;2023-04-07T15:29:38;97297.16;;;6.83;76.15
41044;BME280;51680;49.806;18.774;2023-04-07T15:32:42;97299.69;;;6.85;76.10
41044;BME280;51680;49.806;18.774;2023-04-07T15:35:58;97303.81;;;6.89;76.08
41044;BME280;51680;49.806;18.774;2023-04-07T15:39:01;97294.88;;;6.77;78.22
41044;BME280;51680;49.806;18.774;2023-04-07T15:42:03;97289.38;;;6.83;76.46
41044;BME280;51680;49.806;18.774;2023-04-07T15:45:10;97295.34;;;6.85;76.48
41044;BME280;51680;49.806;18.774;2023-04-07T15:48:13;97293.50;;;6.87;76.67
41044;BME280;51680;49.806;18.774;2023-04-07T15:51:19;97298.47;;;6.92;76.38
41044;BME280;51680;49.806;18.774;2023-04-07T15:54:21;97302.88;;;6.90;77.10
41044;BME280;51680;49.806;18.774;2023-04-07T15:57:23;97302.81;;;6.91;76.61
41044;BME280;51680;49.806;18.774;2023-04-07T16:00:25;97302.72;;;6.93;76.91
41044;BME280;51680;49.806;18.774;2023-04-07T16:03:27;97301.75;;;6.95;76.49
41044;BME280;51680;49.806;18.774;2023-04-07T16:09:35;97302.94;;;6.88;76.71
41044;BME280;51680;49.806;18.774;2023-04-07T16:12:37;97313.19;;;6.91;76.74
41044;BME280;51680;49.806;18.774;2023-04-07T16:15:39;97307.06;;;6.92;77.07
41044;BME280;51680;49.806;18.774;2023-04-07T16:18:44;97300.88;;;6.95;76.96